Time;durP1;ratioP1;P1;durP2;ratioP2;P2;SDS_P1;SDS_P2;PMS_P1;PMS_P2;Temp;Humidity;BMP_temperature;BMP_pressure;BME280_temperature;BME280_humidity;BME280_pressure;Samples;Min_cycle;Max_cycle;Signal;HPM_P1;HPM_P2
2023/12/01 09:32:28;;;;;;;;;;;;;;;0.3;100;100883.3;;;;-82
2023/12/01 11:18:11;;;;;;;;;;;;;;;1.63;90.02344;100903.6;;;;-82
2023/12/01 11:23:07;;;;;;;;;;;;;;;1.77;92.83887;100903.2;;;;-83
2023/12/01 13:37:50;;;;;;;;;;;;;;;2.07;90.25586;100942.8;;;;-88
2023/12/01 13:42:36;;;;;;;;;;;;;;;1.71;92.48145;100940.2;;;;-88
2023/12/01 13:47:36;;;;;;;;;;;;;;;1.49;94.98047;100939.4;;;;-89
2023/12/01 13:52:03;;;;;;;15.8;6.6;;;;;;;;;;;;;-87
2023/12/01 13:52:35;;;;;;;;;;;;;;;1.35;98.76465;100935.6;;;;-89
2023/12/01 13:57:39;;;;;;;;;;;;;;;1.3;100;100936.3;;;;-88
2023/12/01 14:02:36;;;;;;;;;;;;;;;1.64;100;100930.4;;;;-88
2023/12/01 14:07:36;;;;;;;;;;;;;;;1.32;100;100931.8;;;;-87
2023/12/01 14:12:38;;;;;;;;;;;;;;;1.14;100;100936;;;;-88
2023/12/01 14:17:48;;;;;;;;;;;;;;;0.95;100;100933.3;;;;-88
2023/12/01 14:22:01;;;;;;;16.7;6.6;;;;;;;;;;;;;-87
2023/12/01 14:22:39;;;;;;;;;;;;;;;0.75;100;100930.7;;;;-89
2023/12/01 14:27:42;;;;;;;;;;;;;;;0.62;100;100924;;;;-89
2023/12/01 14:32:36;;;;;;;;;;;;;;;0.48;100;100928.7;;;;-89
2023/12/01 14:37:36;;;;;;;;;;;;;;;0.35;100;100926.8;;;;-89
2023/12/01 14:42:35;;;;;;;;;;;;;;;0.29;100;100923;;;;-90
2023/12/01 14:47:38;;;;;;;;;;;;;;;0.18;100;100929;;;;-89
2023/12/01 14:52:07;;;;;;;19.4;6.8;;;;;;;;;;;;;-89
2023/12/01 14:52:39;;;;;;;;;;;;;;;0.1;100;100930.1;;;;-90
2023/12/01 14:57:41;;;;;;;;;;;;;;;0.01;100;100929.6;;;;-88
2023/12/01 15:02:47;;;;;;;;;;;;;;;-0.12;100;100923.1;;;;-90
2023/12/01 15:07:48;;;;;;;;;;;;;;;-0.22;100;100918.8;;;;-89
2023/12/01 15:12:51;;;;;;;;;;;;;;;-0.3;100;100938.2;;;;-88
2023/12/01 15:17:57;;;;;;;;;;;;;;;-0.35;100;100943.8;;;;-89
2023/12/01 15:22:03;;;;;;;16.9;6.8;;;;;;;;;;;;;-89
2023/12/01 15:22:34;;;;;;;;;;;;;;;-0.5;100;100946;;;;-87
2023/12/01 15:27:46;;;;;;;;;;;;;;;-0.62;100;100960.4;;;;-89
2023/12/01 15:32:35;;;;;;;;;;;;;;;-0.73;100;100957.4;;;;-89
2023/12/01 15:37:50;;;;;;;;;;;;;;;-0.83;100;100963.7;;;;-88
2023/12/01 15:42:36;;;;;;;;;;;;;;;-0.97;100;100970.8;;;;-87
2023/12/01 15:47:34;;;;;;;;;;;;;;;-1.08;100;100971.3;;;;-88
2023/12/01 15:52:04;;;;;;;19.1;7.1;;;;;;;;;;;;;-88
2023/12/01 15:52:34;;;;;;;;;;;;;;;-1.18;100;100987.2;;;;-87
2023/12/01 15:57:36;;;;;;;;;;;;;;;-1.29;100;100991.9;;;;-86
2023/12/01 16:02:37;;;;;;;;;;;;;;;-1.4;100;100997.5;;;;-88
2023/12/01 16:07:39;;;;;;;;;;;;;;;-1.53;100;101002.6;;;;-88
2023/12/01 16:12:34;;;;;;;;;;;;;;;-1.6;100;101009.8;;;;-88
2023/12/01 16:17:40;;;;;;;;;;;;;;;-1.67;100;101013.6;;;;-88
2023/12/01 16:21:59;;;;;;;18.8;6.6;;;;;;;;;;;;;-88
2023/12/01 16:22:34;;;;;;;;;;;;;;;-1.76;100;101017.3;;;;-88
2023/12/01 16:27:40;;;;;;;;;;;;;;;-1.84;100;101014.3;;;;-89
2023/12/01 16:32:36;;;;;;;;;;;;;;;-1.86;100;101015;;;;-88
2023/12/01 16:37:37;;;;;;;;;;;;;;;-1.95;100;101020.9;;;;-87
2023/12/01 16:42:40;;;;;;;;;;;;;;;-2.02;100;101016.9;;;;-88
2023/12/01 16:47:42;;;;;;;;;;;;;;;-2.06;100;101026.9;;;;-89
2023/12/01 16:52:00;;;;;;;19.4;6.7;;;;;;;;;;;;;-88
2023/12/01 16:52:34;;;;;;;;;;;;;;;-2.12;100;101024.4;;;;-88
2023/12/01 16:57:44;;;;;;;;;;;;;;;-2.11;100;101029.6;;;;-87
2023/12/01 17:02:34;;;;;;;;;;;;;;;-2.11;100;101037.1;;;;-80
2023/12/01 17:07:34;;;;;;;;;;;;;;;-2.12;100;101036.2;;;;-80
2023/12/01 17:12:35;;;;;;;;;;;;;;;-2.1;100;101042.2;;;;-80
2023/12/01 17:17:37;;;;;;;;;;;;;;;-2.07;100;101046.9;;;;-80
2023/12/01 17:21:59;;;;;;;24.1;8.5;;;;;;;;;;;;;-80
2023/12/01 17:22:34;;;;;;;;;;;;;;;-1.97;100;101054.4;;;;-80
2023/12/01 17:27:35;;;;;;;;;;;;;;;-1.8;100;101061;;;;-80
2023/12/01 17:32:34;;;;;;;;;;;;;;;-1.66;100;101062.7;;;;-80
2023/12/01 17:37:34;;;;;;;;;;;;;;;-1.62;100;101059.4;;;;-79
2023/12/01 17:42:37;;;;;;;;;;;;;;;-1.74;100;101053.9;;;;-80
2023/12/01 17:47:55;;;;;;;;;;;;;;;-1.77;100;101064.4;;;;-80
2023/12/01 17:51:58;;;;;;;22.2;8.2;;;;;;;;;;;;;-81
2023/12/01 17:52:34;;;;;;;;;;;;;;;-1.75;100;101063.4;;;;-82
2023/12/01 17:57:40;;;;;;;;;;;;;;;-1.63;100;101063.9;;;;-81
2023/12/01 18:02:40;;;;;;;;;;;;;;;-1.52;100;101065.9;;;;-80
2023/12/01 18:07:36;;;;;;;;;;;;;;;-1.47;100;101060.8;;;;-81
2023/12/01 18:12:34;;;;;;;;;;;;;;;-1.49;100;101063;;;;-79
2023/12/01 18:17:35;;;;;;;;;;;;;;;-1.48;100;101066.6;;;;-81
2023/12/01 18:21:59;;;;;;;25;10;;;;;;;;;;;;;-80
2023/12/01 18:22:34;;;;;;;;;;;;;;;-1.36;100;101073.7;;;;-80
2023/12/01 18:27:36;;;;;;;;;;;;;;;-1.3;100;101078.1;;;;-86
2023/12/01 18:32:36;;;;;;;;;;;;;;;-1.28;100;101084.3;;;;-86
2023/12/01 18:37:41;;;;;;;;;;;;;;;-1.27;100;101086;;;;-85
2023/12/01 18:42:51;;;;;;;;;;;;;;;-1.27;100;101085;;;;-86
2023/12/01 18:47:35;;;;;;;;;;;;;;;-1.35;100;101086.9;;;;-81
2023/12/01 18:51:58;;;;;;;27.4;9.7;;;;;;;;;;;;;-81
2023/12/01 18:52:36;;;;;;;;;;;;;;;-1.52;100;101090.2;;;;-82
2023/12/01 18:57:34;;;;;;;;;;;;;;;-1.72;100;101083.6;;;;-81
2023/12/01 19:02:34;;;;;;;;;;;;;;;-1.89;100;101085.4;;;;-82
2023/12/01 19:07:34;;;;;;;;;;;;;;;-1.92;100;101091.3;;;;-82
2023/12/01 19:12:35;;;;;;;;;;;;;;;-2.01;100;101089.7;;;;-80
2023/12/01 19:17:40;;;;;;;;;;;;;;;-2.09;100;101093.5;;;;-82
2023/12/01 19:21:57;;;;;;;35.1;11.1;;;;;;;;;;;;;-78
2023/12/01 19:22:36;;;;;;;;;;;;;;;-2.05;100;101100.4;;;;-79
2023/12/01 19:27:34;;;;;;;;;;;;;;;-2;100;101091.2;;;;-79
2023/12/01 19:32:39;;;;;;;;;;;;;;;-1.94;100;101100.1;;;;-80
2023/12/01 19:37:36;;;;;;;;;;;;;;;-1.91;100;101104.6;;;;-81
2023/12/01 19:42:37;;;;;;;;;;;;;;;-1.93;100;101111.3;;;;-80
2023/12/01 19:47:34;;;;;;;;;;;;;;;-1.99;100;101109.2;;;;-82
2023/12/01 19:51:58;;;;;;;28.7;10;;;;;;;;;;;;;-81
2023/12/01 19:52:34;;;;;;;;;;;;;;;-2.04;100;101111.5;;;;-81
2023/12/01 19:57:41;;;;;;;;;;;;;;;-1.99;100;101112.4;;;;-81
2023/12/01 20:02:40;;;;;;;;;;;;;;;-1.93;100;101100.7;;;;-81
2023/12/01 20:07:35;;;;;;;;;;;;;;;-1.87;100;101110.1;;;;-80
2023/12/01 20:12:41;;;;;;;;;;;;;;;-1.82;100;101101.3;;;;-80
2023/12/01 20:17:35;;;;;;;;;;;;;;;-1.79;100;101102.9;;;;-81
2023/12/01 20:22:00;;;;;;;24.3;9.6;;;;;;;;;;;;;-81
2023/12/01 20:22:34;;;;;;;;;;;;;;;-1.81;100;101108.5;;;;-80
2023/12/01 20:27:56;;;;;;;;;;;;;;;-1.88;100;101093.9;;;;-80
2023/12/01 20:32:52;;;;;;;;;;;;;;;-1.99;100;101087.8;;;;-81
2023/12/01 20:37:56;;;;;;;;;;;;;;;-2.08;100;101101;;;;-86
2023/12/01 20:42:37;;;;;;;;;;;;;;;-2.18;100;101102.4;;;;-87
2023/12/01 20:47:34;;;;;;;;;;;;;;;-2.3;100;101104.4;;;;-87
2023/12/01 20:51:59;;;;;;;23.7;8.7;;;;;;;;;;;;;-86
2023/12/01 20:52:36;;;;;;;;;;;;;;;-2.34;100;101108.3;;;;-85
2023/12/01 20:57:37;;;;;;;;;;;;;;;-2.47;100;101099.4;;;;-86
2023/12/01 21:02:44;;;;;;;;;;;;;;;-2.56;100;101104.3;;;;-87
2023/12/01 21:07:36;;;;;;;;;;;;;;;-2.67;100;101105.2;;;;-84
2023/12/01 21:12:37;;;;;;;;;;;;;;;-2.8;100;101109.6;;;;-86
2023/12/01 21:17:34;;;;;;;;;;;;;;;-2.88;100;101106.3;;;;-86
2023/12/01 21:22:07;;;;;;;23.3;8.1;;;;;;;;;;;;;-86
2023/12/01 21:22:40;;;;;;;;;;;;;;;-2.95;100;101110.4;;;;-85
2023/12/01 21:27:51;;;;;;;;;;;;;;;-2.97;100;101109.9;;;;-86
2023/12/01 21:32:47;;;;;;;;;;;;;;;-3.03;100;101113.4;;;;-85
2023/12/01 21:37:43;;;;;;;;;;;;;;;-3.12;100;101116.8;;;;-86
2023/12/01 21:42:43;;;;;;;;;;;;;;;-3.18;100;101119.3;;;;-85
2023/12/01 21:47:44;;;;;;;;;;;;;;;-3.21;100;101121.9;;;;-84
2023/12/01 21:51:55;;;;;;;26.4;9.6;;;;;;;;;;;;;-85
2023/12/01 21:52:38;;;;;;;;;;;;;;;-3.24;100;101117.2;;;;-85
2023/12/01 21:57:52;;;;;;;;;;;;;;;-3.27;100;101117.4;;;;-87
2023/12/01 22:02:41;;;;;;;;;;;;;;;-3.32;100;101108.6;;;;-84
2023/12/01 22:07:57;;;;;;;;;;;;;;;-3.24;100;101109.1;;;;-85
2023/12/01 22:12:40;;;;;;;;;;;;;;;-3.1;100;101108.5;;;;-85
2023/12/01 22:17:35;;;;;;;;;;;;;;;-2.92;100;101119.7;;;;-85
2023/12/01 22:21:53;;;;;;;32.8;11.6;;;;;;;;;;;;;-86
2023/12/01 22:22:34;;;;;;;;;;;;;;;-2.74;100;101129.6;;;;-85
2023/12/01 22:27:38;;;;;;;;;;;;;;;-2.56;100;101133;;;;-87
2023/12/01 22:32:38;;;;;;;;;;;;;;;-2.42;100;101141.1;;;;-85
2023/12/01 22:37:35;;;;;;;;;;;;;;;-2.31;100;101133.6;;;;-85
2023/12/01 22:42:43;;;;;;;;;;;;;;;-2.2;100;101134.7;;;;-87
2023/12/01 22:47:36;;;;;;;;;;;;;;;-2.15;100;101142.2;;;;-86
2023/12/01 22:52:01;;;;;;;33.8;12;;;;;;;;;;;;;-85
2023/12/01 22:52:53;;;;;;;;;;;;;;;-2.07;100;101156.3;;;;-85
2023/12/01 22:57:36;;;;;;;;;;;;;;;-1.99;100;101162.6;;;;-87
2023/12/01 23:02:35;;;;;;;;;;;;;;;-1.93;100;101153.4;;;;-85
2023/12/01 23:07:38;;;;;;;;;;;;;;;-1.87;100;101145.6;;;;-86
2023/12/01 23:12:41;;;;;;;;;;;;;;;-1.82;100;101139.2;;;;-86
2023/12/01 23:17:50;;;;;;;;;;;;;;;-1.75;100;101148.1;;;;-86
2023/12/01 23:21:54;;;;;;;34.1;12.6;;;;;;;;;;;;;-85
2023/12/01 23:22:36;;;;;;;;;;;;;;;-1.68;100;101141.3;;;;-85
2023/12/01 23:27:53;;;;;;;;;;;;;;;-1.65;100;101150.1;;;;-86
2023/12/01 23:32:37;;;;;;;;;;;;;;;-1.62;100;101150;;;;-86
2023/12/01 23:37:42;;;;;;;;;;;;;;;-1.62;100;101152.3;;;;-86
2023/12/01 23:42:35;;;;;;;;;;;;;;;-1.66;100;101152.8;;;;-85
2023/12/01 23:47:34;;;;;;;;;;;;;;;-1.69;100;101151;;;;-84
2023/12/01 23:51:53;;;;;;;37.9;13.4;;;;;;;;;;;;;-85
2023/12/01 23:52:43;;;;;;;;;;;;;;;-1.71;100;101145.3;;;;-85
2023/12/01 23:57:38;;;;;;;;;;;;;;;-1.68;100;101145.7;;;;-85
